sensor_id;sensor_type;location;lat;lon;timestamp;P1;durP1;ratioP1;P2;durP2;ratioP2
52126;SDS011;38120;53.176;6.614;2023-10-19T00:02:05;26.67;;;14.93;;
52126;SDS011;38120;53.176;6.614;2023-10-19T00:04:32;23.17;;;15.73;;
52126;SDS011;38120;53.176;6.614;2023-10-19T00:07:00;18.08;;;13.30;;
52126;SDS011;38120;53.176;6.614;2023-10-19T00:09:29;21.38;;;14.20;;
52126;SDS011;38120;53.176;6.614;2023-10-19T00:12:01;20.88;;;15.23;;
52126;SDS011;38120;53.176;6.614;2023-10-19T00:14:28;21.77;;;15.20;;
52126;SDS011;38120;53.176;6.614;2023-10-19T00:16:54;20.83;;;15.38;;
52126;SDS011;38120;53.176;6.614;2023-10-19T00:19:21;20.85;;;15.50;;
52126;SDS011;38120;53.176;6.614;2023-10-19T00:21:52;23.95;;;15.82;;
52126;SDS011;38120;53.176;6.614;2023-10-19T00:24:27;23.23;;;15.35;;
52126;SDS011;38120;53.176;6.614;2023-10-19T00:26:53;22.83;;;15.75;;
52126;SDS011;38120;53.176;6.614;2023-10-19T00:29:20;27.52;;;15.45;;
52126;SDS011;38120;53.176;6.614;2023-10-19T00:32:05;23.85;;;14.65;;
52126;SDS011;38120;53.176;6.614;2023-10-19T00:34:31;23.50;;;15.48;;
52126;SDS011;38120;53.176;6.614;2023-10-19T00:36:58;24.42;;;14.65;;
52126;SDS011;38120;53.176;6.614;2023-10-19T00:39:33;22.13;;;15.82;;
52126;SDS011;38120;53.176;6.614;2023-10-19T00:42:08;22.25;;;15.40;;
52126;SDS011;38120;53.176;6.614;2023-10-19T00:44:34;21.63;;;14.85;;
52126;SDS011;38120;53.176;6.614;2023-10-19T00:47:07;21.80;;;15.73;;
52126;SDS011;38120;53.176;6.614;2023-10-19T00:49:38;20.95;;;14.75;;
52126;SDS011;38120;53.176;6.614;2023-10-19T00:52:04;23.00;;;15.18;;
52126;SDS011;38120;53.176;6.614;2023-10-19T00:54:44;21.08;;;15.35;;
52126;SDS011;38120;53.176;6.614;2023-10-19T00:57:20;23.23;;;16.73;;
52126;SDS011;38120;53.176;6.614;2023-10-19T01:02:36;26.90;;;17.38;;
52126;SDS011;38120;53.176;6.614;2023-10-19T01:05:08;25.25;;;15.57;;
52126;SDS011;38120;53.176;6.614;2023-10-19T01:07:38;26.85;;;17.52;;
52126;SDS011;38120;53.176;6.614;2023-10-19T01:10:04;25.02;;;18.13;;
52126;SDS011;38120;53.176;6.614;2023-10-19T01:12:37;29.08;;;17.70;;
52126;SDS011;38120;53.176;6.614;2023-10-19T01:17:42;24.35;;;16.52;;
52126;SDS011;38120;53.176;6.614;2023-10-19T01:20:18;23.45;;;16.85;;
52126;SDS011;38120;53.176;6.614;2023-10-19T01:23:05;23.98;;;16.88;;
52126;SDS011;38120;53.176;6.614;2023-10-19T01:25:33;22.13;;;15.90;;
52126;SDS011;38120;53.176;6.614;2023-10-19T01:28:15;23.13;;;16.65;;
52126;SDS011;38120;53.176;6.614;2023-10-19T01:30:45;24.50;;;16.73;;
52126;SDS011;38120;53.176;6.614;2023-10-19T01:33:11;22.60;;;17.08;;
52126;SDS011;38120;53.176;6.614;2023-10-19T01:35:44;24.02;;;16.33;;
52126;SDS011;38120;53.176;6.614;2023-10-19T01:38:28;21.13;;;15.40;;
52126;SDS011;38120;53.176;6.614;2023-10-19T01:41:05;27.05;;;18.08;;
52126;SDS011;38120;53.176;6.614;2023-10-19T01:43:53;24.52;;;16.50;;
52126;SDS011;38120;53.176;6.614;2023-10-19T01:46:19;20.55;;;15.63;;
52126;SDS011;38120;53.176;6.614;2023-10-19T01:48:51;25.75;;;16.00;;
52126;SDS011;38120;53.176;6.614;2023-10-19T01:51:25;25.67;;;17.17;;
52126;SDS011;38120;53.176;6.614;2023-10-19T01:53:53;23.25;;;16.73;;
52126;SDS011;38120;53.176;6.614;2023-10-19T01:56:20;26.42;;;17.42;;
52126;SDS011;38120;53.176;6.614;2023-10-19T02:01:13;26.35;;;16.85;;
52126;SDS011;38120;53.176;6.614;2023-10-19T02:03:40;25.75;;;16.63;;
52126;SDS011;38120;53.176;6.614;2023-10-19T02:06:09;24.25;;;18.05;;
52126;SDS011;38120;53.176;6.614;2023-10-19T02:08:45;23.83;;;16.85;;
52126;SDS011;38120;53.176;6.614;2023-10-19T02:11:18;24.25;;;17.27;;
52126;SDS011;38120;53.176;6.614;2023-10-19T02:13:49;24.80;;;18.67;;
52126;SDS011;38120;53.176;6.614;2023-10-19T02:16:17;25.90;;;16.92;;
52126;SDS011;38120;53.176;6.614;2023-10-19T02:18:50;22.17;;;16.35;;
52126;SDS011;38120;53.176;6.614;2023-10-19T02:26:22;23.17;;;16.40;;
52126;SDS011;38120;53.176;6.614;2023-10-19T02:28:52;24.00;;;17.05;;
52126;SDS011;38120;53.176;6.614;2023-10-19T02:31:18;23.02;;;16.40;;
52126;SDS011;38120;53.176;6.614;2023-10-19T02:33:48;21.65;;;15.38;;
52126;SDS011;38120;53.176;6.614;2023-10-19T02:36:24;24.20;;;17.77;;
52126;SDS011;38120;53.176;6.614;2023-10-19T02:38:54;21.02;;;14.75;;
52126;SDS011;38120;53.176;6.614;2023-10-19T02:41:24;22.50;;;17.38;;
52126;SDS011;38120;53.176;6.614;2023-10-19T02:43:52;21.25;;;14.52;;
52126;SDS011;38120;53.176;6.614;2023-10-19T02:46:34;20.17;;;16.48;;
52126;SDS011;38120;53.176;6.614;2023-10-19T02:49:07;25.90;;;16.40;;
52126;SDS011;38120;53.176;6.614;2023-10-19T02:51:40;22.38;;;15.10;;
52126;SDS011;38120;53.176;6.614;2023-10-19T02:54:09;22.33;;;16.75;;
52126;SDS011;38120;53.176;6.614;2023-10-19T02:56:43;22.52;;;15.07;;
52126;SDS011;38120;53.176;6.614;2023-10-19T02:59:12;20.42;;;16.50;;
52126;SDS011;38120;53.176;6.614;2023-10-19T03:01:41;21.98;;;15.38;;
52126;SDS011;38120;53.176;6.614;2023-10-19T03:04:10;19.67;;;16.23;;
52126;SDS011;38120;53.176;6.614;2023-10-19T03:06:40;20.08;;;15.48;;
52126;SDS011;38120;53.176;6.614;2023-10-19T03:09:07;20.75;;;16.45;;
52126;SDS011;38120;53.176;6.614;2023-10-19T03:11:55;20.95;;;16.00;;
52126;SDS011;38120;53.176;6.614;2023-10-19T03:14:35;18.98;;;14.30;;
52126;SDS011;38120;53.176;6.614;2023-10-19T03:17:02;22.52;;;15.73;;
52126;SDS011;38120;53.176;6.614;2023-10-19T03:19:30;23.98;;;16.08;;
52126;SDS011;38120;53.176;6.614;2023-10-19T03:21:56;18.90;;;14.73;;
52126;SDS011;38120;53.176;6.614;2023-10-19T03:24:25;22.92;;;15.75;;
52126;SDS011;38120;53.176;6.614;2023-10-19T03:27:09;17.60;;;13.40;;
52126;SDS011;38120;53.176;6.614;2023-10-19T03:29:42;17.85;;;12.73;;
52126;SDS011;38120;53.176;6.614;2023-10-19T03:32:20;19.30;;;14.13;;
52126;SDS011;38120;53.176;6.614;2023-10-19T03:34:54;19.05;;;14.18;;
52126;SDS011;38120;53.176;6.614;2023-10-19T03:37:25;17.25;;;12.55;;
52126;SDS011;38120;53.176;6.614;2023-10-19T03:39:55;16.33;;;12.75;;
52126;SDS011;38120;53.176;6.614;2023-10-19T03:42:23;16.70;;;12.77;;
52126;SDS011;38120;53.176;6.614;2023-10-19T03:45:05;18.58;;;13.52;;
52126;SDS011;38120;53.176;6.614;2023-10-19T03:47:38;17.02;;;12.32;;
52126;SDS011;38120;53.176;6.614;2023-10-19T03:52:36;17.10;;;12.98;;
52126;SDS011;38120;53.176;6.614;2023-10-19T03:55:04;17.13;;;12.10;;
52126;SDS011;38120;53.176;6.614;2023-10-19T03:57:36;16.65;;;11.95;;
52126;SDS011;38120;53.176;6.614;2023-10-19T04:00:06;18.83;;;12.95;;
52126;SDS011;38120;53.176;6.614;2023-10-19T04:02:36;18.05;;;13.23;;
52126;SDS011;38120;53.176;6.614;2023-10-19T04:05:03;17.15;;;12.77;;
52126;SDS011;38120;53.176;6.614;2023-10-19T04:07:29;16.33;;;12.32;;
52126;SDS011;38120;53.176;6.614;2023-10-19T04:09:58;18.38;;;14.25;;
52126;SDS011;38120;53.176;6.614;2023-10-19T04:12:36;17.83;;;13.32;;
52126;SDS011;38120;53.176;6.614;2023-10-19T04:15:06;18.95;;;13.70;;
52126;SDS011;38120;53.176;6.614;2023-10-19T04:17:40;17.65;;;13.00;;
52126;SDS011;38120;53.176;6.614;2023-10-19T04:20:16;16.73;;;12.25;;
52126;SDS011;38120;53.176;6.614;2023-10-19T04:22:47;16.67;;;12.75;;
52126;SDS011;38120;53.176;6.614;2023-10-19T04:25:15;16.88;;;12.20;;
52126;SDS011;38120;53.176;6.614;2023-10-19T04:27:42;18.48;;;13.15;;
52126;SDS011;38120;53.176;6.614;2023-10-19T04:30:12;13.00;;;10.80;;
52126;SDS011;38120;53.176;6.614;2023-10-19T04:32:43;15.73;;;11.95;;
52126;SDS011;38120;53.176;6.614;2023-10-19T04:35:10;12.20;;;10.50;;
52126;SDS011;38120;53.176;6.614;2023-10-19T04:37:38;14.60;;;11.48;;
52126;SDS011;38120;53.176;6.614;2023-10-19T04:40:10;15.40;;;11.95;;
52126;SDS011;38120;53.176;6.614;2023-10-19T04:42:37;17.85;;;13.38;;
52126;SDS011;38120;53.176;6.614;2023-10-19T04:45:03;15.13;;;11.55;;
52126;SDS011;38120;53.176;6.614;2023-10-19T04:47:30;19.42;;;12.05;;
52126;SDS011;38120;53.176;6.614;2023-10-19T04:50:04;15.48;;;11.55;;
52126;SDS011;38120;53.176;6.614;2023-10-19T04:52:31;14.50;;;11.07;;
52126;SDS011;38120;53.176;6.614;2023-10-19T04:54:57;14.43;;;12.00;;
52126;SDS011;38120;53.176;6.614;2023-10-19T04:57:23;18.35;;;11.65;;
52126;SDS011;38120;53.176;6.614;2023-10-19T04:59:49;12.83;;;9.70;;
52126;SDS011;38120;53.176;6.614;2023-10-19T05:02:15;13.18;;;10.13;;
52126;SDS011;38120;53.176;6.614;2023-10-19T05:04:44;18.60;;;10.20;;
52126;SDS011;38120;53.176;6.614;2023-10-19T05:07:10;11.65;;;8.93;;
52126;SDS011;38120;53.176;6.614;2023-10-19T05:09:42;13.63;;;10.10;;
52126;SDS011;38120;53.176;6.614;2023-10-19T05:12:11;13.35;;;10.27;;
52126;SDS011;38120;53.176;6.614;2023-10-19T05:14:53;12.75;;;9.82;;
52126;SDS011;38120;53.176;6.614;2023-10-19T05:17:19;11.43;;;8.60;;
52126;SDS011;38120;53.176;6.614;2023-10-19T05:19:48;12.35;;;8.70;;
52126;SDS011;38120;53.176;6.614;2023-10-19T05:22:14;12.73;;;8.73;;
52126;SDS011;38120;53.176;6.614;2023-10-19T05:24:41;12.15;;;8.75;;
52126;SDS011;38120;53.176;6.614;2023-10-19T05:27:13;10.53;;;8.50;;
52126;SDS011;38120;53.176;6.614;2023-10-19T05:29:39;11.07;;;7.57;;
52126;SDS011;38120;53.176;6.614;2023-10-19T05:32:05;11.48;;;7.97;;
52126;SDS011;38120;53.176;6.614;2023-10-19T05:34:30;12.10;;;8.13;;
52126;SDS011;38120;53.176;6.614;2023-10-19T05:37:00;10.88;;;7.75;;
52126;SDS011;38120;53.176;6.614;2023-10-19T05:39:27;10.60;;;8.18;;
52126;SDS011;38120;53.176;6.614;2023-10-19T05:41:56;9.70;;;7.00;;
52126;SDS011;38120;53.176;6.614;2023-10-19T05:44:33;9.00;;;6.95;;
52126;SDS011;38120;53.176;6.614;2023-10-19T05:49:25;8.98;;;6.32;;
52126;SDS011;38120;53.176;6.614;2023-10-19T05:51:51;9.85;;;6.45;;
52126;SDS011;38120;53.176;6.614;2023-10-19T05:54:17;8.60;;;6.25;;
52126;SDS011;38120;53.176;6.614;2023-10-19T05:56:43;8.70;;;6.25;;
52126;SDS011;38120;53.176;6.614;2023-10-19T05:59:09;8.77;;;5.87;;
52126;SDS011;38120;53.176;6.614;2023-10-19T06:01:35;8.77;;;5.70;;
52126;SDS011;38120;53.176;6.614;2023-10-19T06:04:07;8.05;;;5.95;;
52126;SDS011;38120;53.176;6.614;2023-10-19T06:06:33;8.15;;;5.72;;
52126;SDS011;38120;53.176;6.614;2023-10-19T06:08:59;8.77;;;6.03;;
52126;SDS011;38120;53.176;6.614;2023-10-19T06:11:28;9.10;;;6.47;;
52126;SDS011;38120;53.176;6.614;2023-10-19T06:13:57;8.55;;;5.13;;
52126;SDS011;38120;53.176;6.614;2023-10-19T06:16:24;7.57;;;5.13;;
52126;SDS011;38120;53.176;6.614;2023-10-19T06:18:56;6.82;;;5.28;;
52126;SDS011;38120;53.176;6.614;2023-10-19T06:21:22;8.50;;;5.53;;
52126;SDS011;38120;53.176;6.614;2023-10-19T06:23:53;9.20;;;5.68;;
52126;SDS011;38120;53.176;6.614;2023-10-19T06:26:19;6.57;;;5.30;;
52126;SDS011;38120;53.176;6.614;2023-10-19T06:28:45;6.35;;;4.65;;
52126;SDS011;38120;53.176;6.614;2023-10-19T06:31:11;7.20;;;5.20;;
52126;SDS011;38120;53.176;6.614;2023-10-19T06:33:39;7.97;;;5.28;;
52126;SDS011;38120;53.176;6.614;2023-10-19T06:38:32;6.80;;;4.47;;
52126;SDS011;38120;53.176;6.614;2023-10-19T06:40:58;7.30;;;5.30;;
52126;SDS011;38120;53.176;6.614;2023-10-19T06:43:24;9.93;;;4.75;;
52126;SDS011;38120;53.176;6.614;2023-10-19T06:45:53;8.02;;;5.22;;
52126;SDS011;38120;53.176;6.614;2023-10-19T06:50:46;6.20;;;3.95;;
52126;SDS011;38120;53.176;6.614;2023-10-19T06:53:11;7.55;;;4.88;;
52126;SDS011;38120;53.176;6.614;2023-10-19T06:55:37;7.03;;;4.53;;
52126;SDS011;38120;53.176;6.614;2023-10-19T06:58:12;6.78;;;4.40;;
52126;SDS011;38120;53.176;6.614;2023-10-19T07:00:40;5.95;;;4.43;;
52126;SDS011;38120;53.176;6.614;2023-10-19T07:03:08;7.63;;;4.93;;
52126;SDS011;38120;53.176;6.614;2023-10-19T07:05:37;7.45;;;4.88;;
52126;SDS011;38120;53.176;6.614;2023-10-19T07:08:02;6.77;;;4.53;;
52126;SDS011;38120;53.176;6.614;2023-10-19T07:10:32;5.85;;;4.05;;
52126;SDS011;38120;53.176;6.614;2023-10-19T07:12:59;5.28;;;3.78;;
52126;SDS011;38120;53.176;6.614;2023-10-19T07:15:25;5.30;;;3.43;;
52126;SDS011;38120;53.176;6.614;2023-10-19T07:20:19;5.07;;;3.15;;
52126;SDS011;38120;53.176;6.614;2023-10-19T07:23:00;5.28;;;3.22;;
52126;SDS011;38120;53.176;6.614;2023-10-19T07:25:46;5.22;;;3.00;;
52126;SDS011;38120;53.176;6.614;2023-10-19T07:28:14;4.43;;;2.75;;
52126;SDS011;38120;53.176;6.614;2023-10-19T07:30:41;4.68;;;3.05;;
52126;SDS011;38120;53.176;6.614;2023-10-19T07:35:35;4.00;;;2.67;;
52126;SDS011;38120;53.176;6.614;2023-10-19T07:38:04;4.35;;;2.65;;
52126;SDS011;38120;53.176;6.614;2023-10-19T07:40:42;4.05;;;2.72;;
52126;SDS011;38120;53.176;6.614;2023-10-19T07:43:08;4.43;;;2.93;;
52126;SDS011;38120;53.176;6.614;2023-10-19T07:45:35;5.28;;;2.72;;
52126;SDS011;38120;53.176;6.614;2023-10-19T07:48:02;6.57;;;2.63;;
52126;SDS011;38120;53.176;6.614;2023-10-19T07:50:32;4.13;;;2.92;;
52126;SDS011;38120;53.176;6.614;2023-10-19T07:52:59;4.95;;;3.40;;
52126;SDS011;38120;53.176;6.614;2023-10-19T07:55:24;3.53;;;2.60;;
52126;SDS011;38120;53.176;6.614;2023-10-19T07:57:50;4.53;;;3.40;;
52126;SDS011;38120;53.176;6.614;2023-10-19T08:00:17;4.55;;;2.85;;
52126;SDS011;38120;53.176;6.614;2023-10-19T08:02:43;4.88;;;3.05;;
52126;SDS011;38120;53.176;6.614;2023-10-19T08:05:16;4.57;;;3.00;;
52126;SDS011;38120;53.176;6.614;2023-10-19T08:07:45;5.53;;;3.58;;
52126;SDS011;38120;53.176;6.614;2023-10-19T08:10:18;4.25;;;2.92;;
52126;SDS011;38120;53.176;6.614;2023-10-19T08:12:46;4.07;;;3.10;;
52126;SDS011;38120;53.176;6.614;2023-10-19T08:15:13;5.22;;;3.50;;
52126;SDS011;38120;53.176;6.614;2023-10-19T08:17:47;5.70;;;4.05;;
52126;SDS011;38120;53.176;6.614;2023-10-19T08:20:15;4.35;;;2.78;;
52126;SDS011;38120;53.176;6.614;2023-10-19T08:22:42;4.63;;;3.03;;
52126;SDS011;38120;53.176;6.614;2023-10-19T08:25:09;4.25;;;2.97;;
52126;SDS011;38120;53.176;6.614;2023-10-19T08:27:39;6.50;;;3.60;;
52126;SDS011;38120;53.176;6.614;2023-10-19T08:30:09;5.28;;;3.90;;
52126;SDS011;38120;53.176;6.614;2023-10-19T08:32:36;5.80;;;3.75;;
52126;SDS011;38120;53.176;6.614;2023-10-19T08:35:02;4.20;;;3.30;;
52126;SDS011;38120;53.176;6.614;2023-10-19T08:37:28;4.78;;;3.40;;
52126;SDS011;38120;53.176;6.614;2023-10-19T08:39:54;5.07;;;3.93;;
52126;SDS011;38120;53.176;6.614;2023-10-19T08:42:20;4.35;;;3.50;;
52126;SDS011;38120;53.176;6.614;2023-10-19T08:44:46;5.60;;;4.20;;
52126;SDS011;38120;53.176;6.614;2023-10-19T08:47:12;5.90;;;4.22;;
52126;SDS011;38120;53.176;6.614;2023-10-19T08:49:37;4.87;;;3.20;;
52126;SDS011;38120;53.176;6.614;2023-10-19T08:52:03;6.83;;;4.30;;
52126;SDS011;38120;53.176;6.614;2023-10-19T08:54:31;5.00;;;3.70;;
52126;SDS011;38120;53.176;6.614;2023-10-19T08:56:59;5.00;;;3.85;;
52126;SDS011;38120;53.176;6.614;2023-10-19T09:01:59;5.10;;;3.63;;
52126;SDS011;38120;53.176;6.614;2023-10-19T09:04:26;5.35;;;3.42;;
52126;SDS011;38120;53.176;6.614;2023-10-19T09:06:53;5.40;;;3.57;;
52126;SDS011;38120;53.176;6.614;2023-10-19T09:09:20;5.25;;;3.72;;
52126;SDS011;38120;53.176;6.614;2023-10-19T09:11:46;6.45;;;4.28;;
52126;SDS011;38120;53.176;6.614;2023-10-19T09:14:13;5.80;;;4.68;;
52126;SDS011;38120;53.176;6.614;2023-10-19T09:16:55;5.45;;;3.88;;
52126;SDS011;38120;53.176;6.614;2023-10-19T09:22:14;5.95;;;4.57;;
52126;SDS011;38120;53.176;6.614;2023-10-19T09:24:48;5.22;;;3.78;;
52126;SDS011;38120;53.176;6.614;2023-10-19T09:27:20;5.85;;;4.15;;
52126;SDS011;38120;53.176;6.614;2023-10-19T09:29:47;5.70;;;4.35;;
52126;SDS011;38120;53.176;6.614;2023-10-19T09:32:15;5.82;;;4.20;;
52126;SDS011;38120;53.176;6.614;2023-10-19T09:34:41;6.45;;;4.07;;
52126;SDS011;38120;53.176;6.614;2023-10-19T09:37:10;5.40;;;3.97;;
52126;SDS011;38120;53.176;6.614;2023-10-19T09:39:37;5.15;;;3.67;;
52126;SDS011;38120;53.176;6.614;2023-10-19T09:42:06;5.45;;;3.97;;
52126;SDS011;38120;53.176;6.614;2023-10-19T09:47:10;5.20;;;3.92;;
52126;SDS011;38120;53.176;6.614;2023-10-19T09:49:41;5.60;;;4.10;;
52126;SDS011;38120;53.176;6.614;2023-10-19T09:52:08;8.52;;;4.57;;
52126;SDS011;38120;53.176;6.614;2023-10-19T09:54:48;7.78;;;4.82;;
52126;SDS011;38120;53.176;6.614;2023-10-19T10:00:17;5.82;;;3.80;;
52126;SDS011;38120;53.176;6.614;2023-10-19T10:02:54;6.43;;;5.40;;
52126;SDS011;38120;53.176;6.614;2023-10-19T10:10:45;6.40;;;4.30;;
52126;SDS011;38120;53.176;6.614;2023-10-19T10:15:49;7.10;;;4.53;;
52126;SDS011;38120;53.176;6.614;2023-10-19T10:18:25;11.30;;;5.47;;
52126;SDS011;38120;53.176;6.614;2023-10-19T10:21:07;7.25;;;5.03;;
52126;SDS011;38120;53.176;6.614;2023-10-19T10:26:25;7.13;;;5.32;;
52126;SDS011;38120;53.176;6.614;2023-10-19T10:31:47;7.68;;;5.35;;
52126;SDS011;38120;53.176;6.614;2023-10-19T10:37:14;7.90;;;5.25;;
52126;SDS011;38120;53.176;6.614;2023-10-19T10:39:40;9.35;;;5.90;;
52126;SDS011;38120;53.176;6.614;2023-10-19T10:42:07;12.15;;;6.05;;
52126;SDS011;38120;53.176;6.614;2023-10-19T10:44:38;6.90;;;5.25;;
52126;SDS011;38120;53.176;6.614;2023-10-19T10:47:23;6.78;;;5.45;;
52126;SDS011;38120;53.176;6.614;2023-10-19T10:49:58;9.93;;;6.03;;
52126;SDS011;38120;53.176;6.614;2023-10-19T10:52:32;7.15;;;5.35;;
52126;SDS011;38120;53.176;6.614;2023-10-19T10:55:12;9.88;;;6.80;;
52126;SDS011;38120;53.176;6.614;2023-10-19T10:57:43;11.93;;;6.82;;
52126;SDS011;38120;53.176;6.614;2023-10-19T11:00:13;12.07;;;6.65;;
52126;SDS011;38120;53.176;6.614;2023-10-19T11:03:01;10.93;;;6.30;;
52126;SDS011;38120;53.176;6.614;2023-10-19T11:05:29;16.90;;;7.22;;
52126;SDS011;38120;53.176;6.614;2023-10-19T11:10:41;9.25;;;5.57;;
52126;SDS011;38120;53.176;6.614;2023-10-19T11:13:10;10.07;;;6.53;;
52126;SDS011;38120;53.176;6.614;2023-10-19T11:15:37;9.05;;;5.63;;
52126;SDS011;38120;53.176;6.614;2023-10-19T11:18:04;10.20;;;6.05;;
52126;SDS011;38120;53.176;6.614;2023-10-19T11:20:33;8.90;;;6.05;;
52126;SDS011;38120;53.176;6.614;2023-10-19T11:22:59;9.23;;;6.50;;
52126;SDS011;38120;53.176;6.614;2023-10-19T11:25:29;8.37;;;6.43;;
52126;SDS011;38120;53.176;6.614;2023-10-19T11:30:28;9.82;;;6.22;;
52126;SDS011;38120;53.176;6.614;2023-10-19T11:32:56;10.20;;;6.57;;
52126;SDS011;38120;53.176;6.614;2023-10-19T11:35:27;10.13;;;6.40;;
52126;SDS011;38120;53.176;6.614;2023-10-19T11:37:58;10.63;;;7.00;;
52126;SDS011;38120;53.176;6.614;2023-10-19T11:40:26;11.23;;;7.90;;
52126;SDS011;38120;53.176;6.614;2023-10-19T11:42:55;13.48;;;8.77;;
52126;SDS011;38120;53.176;6.614;2023-10-19T11:45:25;12.82;;;8.63;;
52126;SDS011;38120;53.176;6.614;2023-10-19T11:48:03;10.95;;;8.73;;
52126;SDS011;38120;53.176;6.614;2023-10-19T11:50:29;12.93;;;9.48;;
52126;SDS011;38120;53.176;6.614;2023-10-19T11:52:55;15.70;;;10.17;;
52126;SDS011;38120;53.176;6.614;2023-10-19T11:55:21;14.02;;;8.35;;
52126;SDS011;38120;53.176;6.614;2023-10-19T11:57:47;11.90;;;8.95;;
52126;SDS011;38120;53.176;6.614;2023-10-19T12:00:12;12.97;;;8.70;;
52126;SDS011;38120;53.176;6.614;2023-10-19T12:02:48;9.77;;;6.80;;
52126;SDS011;38120;53.176;6.614;2023-10-19T12:05:15;11.50;;;6.93;;
52126;SDS011;38120;53.176;6.614;2023-10-19T12:07:41;8.38;;;7.22;;
52126;SDS011;38120;53.176;6.614;2023-10-19T12:10:07;12.40;;;7.65;;
52126;SDS011;38120;53.176;6.614;2023-10-19T12:12:37;10.82;;;7.22;;
52126;SDS011;38120;53.176;6.614;2023-10-19T12:15:06;9.23;;;6.22;;
52126;SDS011;38120;53.176;6.614;2023-10-19T12:17:33;12.75;;;7.05;;
52126;SDS011;38120;53.176;6.614;2023-10-19T12:19:59;11.60;;;8.02;;
52126;SDS011;38120;53.176;6.614;2023-10-19T12:22:25;11.90;;;7.47;;
52126;SDS011;38120;53.176;6.614;2023-10-19T12:24:57;10.85;;;7.15;;
52126;SDS011;38120;53.176;6.614;2023-10-19T12:27:24;11.75;;;8.05;;
52126;SDS011;38120;53.176;6.614;2023-10-19T12:29:50;10.88;;;8.73;;
52126;SDS011;38120;53.176;6.614;2023-10-19T12:32:19;13.82;;;10.70;;
52126;SDS011;38120;53.176;6.614;2023-10-19T12:34:46;12.15;;;10.35;;
52126;SDS011;38120;53.176;6.614;2023-10-19T12:37:18;17.02;;;11.52;;
52126;SDS011;38120;53.176;6.614;2023-10-19T12:39:44;17.88;;;12.00;;
52126;SDS011;38120;53.176;6.614;2023-10-19T12:42:12;18.73;;;12.98;;
52126;SDS011;38120;53.176;6.614;2023-10-19T12:44:39;20.60;;;15.13;;
52126;SDS011;38120;53.176;6.614;2023-10-19T12:47:06;16.27;;;12.65;;
52126;SDS011;38120;53.176;6.614;2023-10-19T12:49:38;16.52;;;13.40;;
52126;SDS011;38120;53.176;6.614;2023-10-19T12:52:10;15.10;;;13.10;;
52126;SDS011;38120;53.176;6.614;2023-10-19T12:54:36;16.55;;;13.10;;
52126;SDS011;38120;53.176;6.614;2023-10-19T12:57:06;24.08;;;14.43;;
52126;SDS011;38120;53.176;6.614;2023-10-19T12:59:36;15.43;;;13.50;;
52126;SDS011;38120;53.176;6.614;2023-10-19T13:02:05;13.73;;;10.90;;
52126;SDS011;38120;53.176;6.614;2023-10-19T13:04:33;14.07;;;10.40;;
52126;SDS011;38120;53.176;6.614;2023-10-19T13:06:59;12.82;;;10.43;;
52126;SDS011;38120;53.176;6.614;2023-10-19T13:09:27;19.15;;;10.98;;
52126;SDS011;38120;53.176;6.614;2023-10-19T13:11:57;13.57;;;9.35;;
52126;SDS011;38120;53.176;6.614;2023-10-19T13:14:23;17.75;;;10.45;;
52126;SDS011;38120;53.176;6.614;2023-10-19T13:16:49;15.38;;;9.65;;
52126;SDS011;38120;53.176;6.614;2023-10-19T13:19:18;14.13;;;9.10;;
52126;SDS011;38120;53.176;6.614;2023-10-19T13:21:49;13.73;;;9.80;;
52126;SDS011;38120;53.176;6.614;2023-10-19T13:24:15;14.27;;;9.20;;
52126;SDS011;38120;53.176;6.614;2023-10-19T13:26:41;13.43;;;7.70;;
52126;SDS011;38120;53.176;6.614;2023-10-19T13:29:11;11.35;;;8.00;;
52126;SDS011;38120;53.176;6.614;2023-10-19T13:31:36;12.82;;;6.82;;
52126;SDS011;38120;53.176;6.614;2023-10-19T13:34:02;11.82;;;7.70;;
52126;SDS011;38120;53.176;6.614;2023-10-19T13:36:31;10.70;;;7.03;;
52126;SDS011;38120;53.176;6.614;2023-10-19T13:38:56;13.13;;;8.13;;
52126;SDS011;38120;53.176;6.614;2023-10-19T13:41:22;15.63;;;7.87;;
52126;SDS011;38120;53.176;6.614;2023-10-19T13:43:48;16.63;;;9.17;;
52126;SDS011;38120;53.176;6.614;2023-10-19T13:46:14;11.55;;;7.25;;
52126;SDS011;38120;53.176;6.614;2023-10-19T13:48:40;13.40;;;8.45;;
52126;SDS011;38120;53.176;6.614;2023-10-19T13:51:05;13.65;;;9.10;;
52126;SDS011;38120;53.176;6.614;2023-10-19T13:53:38;12.05;;;7.93;;
52126;SDS011;38120;53.176;6.614;2023-10-19T13:56:08;22.20;;;9.40;;
52126;SDS011;38120;53.176;6.614;2023-10-19T13:58:34;14.02;;;8.70;;
52126;SDS011;38120;53.176;6.614;2023-10-19T14:01:00;12.90;;;8.50;;
52126;SDS011;38120;53.176;6.614;2023-10-19T14:03:26;12.43;;;7.95;;
52126;SDS011;38120;53.176;6.614;2023-10-19T14:05:52;13.40;;;9.40;;
52126;SDS011;38120;53.176;6.614;2023-10-19T14:08:21;13.90;;;8.40;;
52126;SDS011;38120;53.176;6.614;2023-10-19T14:10:47;15.07;;;9.02;;
52126;SDS011;38120;53.176;6.614;2023-10-19T14:13:13;16.00;;;9.43;;
52126;SDS011;38120;53.176;6.614;2023-10-19T14:15:39;13.68;;;8.27;;
52126;SDS011;38120;53.176;6.614;2023-10-19T14:18:06;17.45;;;8.70;;
52126;SDS011;38120;53.176;6.614;2023-10-19T14:20:32;16.13;;;8.63;;
52126;SDS011;38120;53.176;6.614;2023-10-19T14:22:59;13.35;;;8.43;;
52126;SDS011;38120;53.176;6.614;2023-10-19T14:25:26;13.25;;;8.85;;
52126;SDS011;38120;53.176;6.614;2023-10-19T14:27:53;14.05;;;7.95;;
52126;SDS011;38120;53.176;6.614;2023-10-19T14:30:27;14.73;;;8.27;;
52126;SDS011;38120;53.176;6.614;2023-10-19T14:32:53;15.77;;;9.55;;
52126;SDS011;38120;53.176;6.614;2023-10-19T14:35:20;16.10;;;8.18;;
52126;SDS011;38120;53.176;6.614;2023-10-19T14:37:48;13.85;;;8.55;;
52126;SDS011;38120;53.176;6.614;2023-10-19T14:40:24;12.90;;;9.10;;
52126;SDS011;38120;53.176;6.614;2023-10-19T14:42:53;13.98;;;9.23;;
52126;SDS011;38120;53.176;6.614;2023-10-19T14:47:48;16.17;;;8.82;;
52126;SDS011;38120;53.176;6.614;2023-10-19T14:50:19;14.60;;;9.25;;
52126;SDS011;38120;53.176;6.614;2023-10-19T14:55:13;12.23;;;7.53;;
52126;SDS011;38120;53.176;6.614;2023-10-19T14:57:41;15.63;;;8.18;;
52126;SDS011;38120;53.176;6.614;2023-10-19T15:00:09;13.95;;;8.65;;
52126;SDS011;38120;53.176;6.614;2023-10-19T15:02:52;13.00;;;8.02;;
52126;SDS011;38120;53.176;6.614;2023-10-19T15:05:26;13.82;;;9.63;;
52126;SDS011;38120;53.176;6.614;2023-10-19T15:07:53;13.88;;;8.52;;
52126;SDS011;38120;53.176;6.614;2023-10-19T15:10:22;14.38;;;9.15;;
52126;SDS011;38120;53.176;6.614;2023-10-19T15:12:49;14.15;;;8.85;;
52126;SDS011;38120;53.176;6.614;2023-10-19T15:15:15;15.38;;;8.13;;
52126;SDS011;38120;53.176;6.614;2023-10-19T15:17:41;14.45;;;6.63;;
52126;SDS011;38120;53.176;6.614;2023-10-19T15:20:09;14.23;;;7.97;;
52126;SDS011;38120;53.176;6.614;2023-10-19T15:22:39;14.80;;;8.02;;
52126;SDS011;38120;53.176;6.614;2023-10-19T15:25:05;11.75;;;7.10;;
52126;SDS011;38120;53.176;6.614;2023-10-19T15:27:32;12.00;;;6.85;;
52126;SDS011;38120;53.176;6.614;2023-10-19T15:30:02;11.88;;;7.55;;
52126;SDS011;38120;53.176;6.614;2023-10-19T15:32:32;15.73;;;8.43;;
52126;SDS011;38120;53.176;6.614;2023-10-19T15:34:58;11.75;;;7.40;;
52126;SDS011;38120;53.176;6.614;2023-10-19T15:37:24;12.37;;;7.73;;
52126;SDS011;38120;53.176;6.614;2023-10-19T15:39:50;13.40;;;7.85;;
52126;SDS011;38120;53.176;6.614;2023-10-19T15:42:16;14.10;;;7.95;;
52126;SDS011;38120;53.176;6.614;2023-10-19T15:44:43;13.07;;;8.05;;
52126;SDS011;38120;53.176;6.614;2023-10-19T15:47:10;14.65;;;8.38;;
52126;SDS011;38120;53.176;6.614;2023-10-19T15:52:19;12.13;;;7.45;;
52126;SDS011;38120;53.176;6.614;2023-10-19T15:54:45;11.65;;;7.85;;